createdAt,value
2022-11-17T00:01:20.503Z,14.23
2022-11-17T00:03:48.313Z,13.89
2022-11-17T00:06:15.362Z,13.85
2022-11-17T00:08:41.964Z,12.88
2022-11-17T00:11:08.722Z,12.73
2022-11-17T00:13:54.244Z,13.26
2022-11-17T00:16:21.552Z,13.21
2022-11-17T00:19:08.158Z,13.59
2022-11-17T00:21:34.839Z,13.30
2022-11-17T00:24:01.988Z,13.85
2022-11-17T00:26:33.498Z,13.96
2022-11-17T00:29:01.765Z,13.80
2022-11-17T00:31:48.254Z,13.91
2022-11-17T00:34:20.084Z,13.41
2022-11-17T00:36:47.852Z,13.76
2022-11-17T00:39:15.783Z,13.62
2022-11-17T00:41:42.494Z,13.58
2022-11-17T00:44:09.359Z,13.60
2022-11-17T00:46:37.437Z,13.50
2022-11-17T00:49:08.852Z,13.89
2022-11-17T00:51:35.944Z,13.82
2022-11-17T00:54:03.263Z,13.60
2022-11-17T00:56:30.002Z,13.48
2022-11-17T00:58:56.908Z,13.00
2022-11-17T01:01:23.610Z,13.20
2022-11-17T01:03:50.226Z,12.64
2022-11-17T01:06:19.176Z,12.89
2022-11-17T01:08:46.449Z,12.96
2022-11-17T01:11:18.208Z,13.02
2022-11-17T01:13:47.079Z,13.03
2022-11-17T01:16:16.804Z,13.07
2022-11-17T01:18:45.127Z,12.23
2022-11-17T01:21:13.003Z,11.92
2022-11-17T01:23:40.880Z,12.40
2022-11-17T01:26:09.759Z,12.45
2022-11-17T01:28:36.820Z,12.32
2022-11-17T01:31:06.225Z,12.59
2022-11-17T01:33:33.169Z,12.64
2022-11-17T01:36:01.768Z,12.54
2022-11-17T01:38:28.270Z,12.37
2022-11-17T01:41:06.809Z,12.43
2022-11-17T01:43:48.288Z,12.49
2022-11-17T01:46:29.429Z,12.44
2022-11-17T01:49:00.728Z,12.08
2022-11-17T01:51:28.143Z,12.48
2022-11-17T01:53:54.658Z,12.45
2022-11-17T01:56:25.130Z,12.56
2022-11-17T01:58:55.230Z,12.50
2022-11-17T02:01:21.851Z,12.41
2022-11-17T02:03:49.400Z,12.76
2022-11-17T02:06:20.849Z,12.79
2022-11-17T02:08:48.655Z,12.61
2022-11-17T02:11:17.639Z,12.65
2022-11-17T02:13:45.057Z,12.48
2022-11-17T02:16:15.787Z,12.82
2022-11-17T02:18:42.979Z,12.41
2022-11-17T02:21:37.484Z,12.67
2022-11-17T02:24:18.902Z,12.51
2022-11-17T02:27:10.218Z,12.29
2022-11-17T02:29:48.525Z,12.16
2022-11-17T02:32:19.002Z,12.41
2022-11-17T02:35:11.346Z,12.38
2022-11-17T02:37:48.173Z,12.46
2022-11-17T02:40:29.301Z,12.24
2022-11-17T02:43:17.340Z,12.16
2022-11-17T02:45:50.033Z,12.31
2022-11-17T02:48:19.824Z,12.28
2022-11-17T02:50:46.898Z,12.37
2022-11-17T02:53:13.718Z,12.05
2022-11-17T02:55:40.193Z,12.17
2022-11-17T02:58:11.998Z,12.23
2022-11-17T03:00:53.033Z,12.33
2022-11-17T03:03:31.164Z,11.77
2022-11-17T03:06:59.398Z,12.16
2022-11-17T03:09:38.453Z,12.25
2022-11-17T03:12:22.298Z,11.89
2022-11-17T03:15:19.720Z,11.62
2022-11-17T03:18:04.273Z,12.22
2022-11-17T03:20:40.984Z,12.18
2022-11-17T03:23:13.148Z,12.09
2022-11-17T03:25:44.249Z,11.81
2022-11-17T03:28:11.619Z,11.81
2022-11-17T03:30:41.193Z,11.93
2022-11-17T03:33:12.466Z,12.12
2022-11-17T03:35:46.315Z,11.96
2022-11-17T03:38:16.681Z,11.80
2022-11-17T03:40:46.783Z,11.87
2022-11-17T03:43:15.486Z,11.78
2022-11-17T03:45:45.632Z,12.03
2022-11-17T03:48:33.552Z,12.10
2022-11-17T03:51:09.252Z,11.96
2022-11-17T03:53:36.446Z,11.89
2022-11-17T03:56:09.331Z,12.11
2022-11-17T03:58:42.769Z,11.94
2022-11-17T04:01:09.740Z,11.53
2022-11-17T04:03:38.252Z,11.70
2022-11-17T04:06:05.112Z,11.92
2022-11-17T04:08:31.857Z,11.72
2022-11-17T04:11:17.022Z,11.73
2022-11-17T04:14:01.979Z,11.65
2022-11-17T04:16:28.416Z,11.76
2022-11-17T04:18:58.857Z,11.58
2022-11-17T04:21:25.727Z,11.84
2022-11-17T04:23:52.193Z,11.81
2022-11-17T04:26:37.367Z,11.50
2022-11-17T04:29:04.153Z,11.68
2022-11-17T04:31:31.444Z,11.72
2022-11-17T04:34:03.188Z,11.37
2022-11-17T04:36:32.405Z,11.66
2022-11-17T04:38:59.544Z,11.40
2022-11-17T04:41:46.171Z,11.42
2022-11-17T04:44:14.229Z,11.47
2022-11-17T04:46:41.182Z,11.44
2022-11-17T04:49:08.544Z,11.74
2022-11-17T04:51:36.237Z,11.77
2022-11-17T04:54:03.401Z,11.80
2022-11-17T04:56:30.021Z,11.77
2022-11-17T04:58:56.747Z,11.51
2022-11-17T05:01:25.118Z,11.62
2022-11-17T05:03:53.557Z,11.31
2022-11-17T05:06:25.143Z,11.60
2022-11-17T05:08:55.471Z,11.87
2022-11-17T05:11:42.185Z,11.79
2022-11-17T05:14:08.716Z,11.30
2022-11-17T05:16:53.831Z,11.28
2022-11-17T05:19:22.904Z,11.62
2022-11-17T05:21:49.731Z,11.35
2022-11-17T05:24:16.702Z,11.14
2022-11-17T05:26:44.581Z,11.13
2022-11-17T05:29:12.391Z,11.41
2022-11-17T05:31:39.217Z,11.30
2022-11-17T05:34:07.574Z,11.63
2022-11-17T05:36:34.489Z,11.09
2022-11-17T05:39:01.217Z,11.53
2022-11-17T05:41:28.812Z,11.27
2022-11-17T05:43:56.243Z,11.36
2022-11-17T05:46:23.291Z,11.65
2022-11-17T05:48:50.461Z,11.43
2022-11-17T05:51:21.494Z,11.71
2022-11-17T05:53:48.917Z,11.47
2022-11-17T05:56:40.753Z,11.25
2022-11-17T05:59:10.202Z,11.49
2022-11-17T06:01:41.041Z,11.51
2022-11-17T06:04:08.283Z,11.18
2022-11-17T06:06:36.354Z,11.74
2022-11-17T06:09:03.589Z,11.68
2022-11-17T06:11:30.286Z,11.64
2022-11-17T06:13:56.751Z,11.33
2022-11-17T06:16:24.767Z,11.67
2022-11-17T06:18:56.024Z,11.92
2022-11-17T06:21:22.642Z,11.92
2022-11-17T06:23:49.497Z,12.00
2022-11-17T06:26:16.301Z,11.89
2022-11-17T06:28:45.887Z,12.20
2022-11-17T06:31:12.406Z,12.48
2022-11-17T06:33:39.069Z,11.99
2022-11-17T06:36:07.582Z,12.24
2022-11-17T06:38:35.793Z,12.16
2022-11-17T06:41:07.532Z,12.12
2022-11-17T06:43:38.346Z,11.97
2022-11-17T06:46:05.586Z,12.11
2022-11-17T06:48:35.532Z,11.82
2022-11-17T06:51:04.595Z,11.74
2022-11-17T06:53:33.120Z,11.77
2022-11-17T06:56:09.698Z,11.70
2022-11-17T06:58:38.292Z,11.68
2022-11-17T07:01:10.366Z,11.89
2022-11-17T07:03:38.492Z,11.61
2022-11-17T07:06:06.768Z,11.74
2022-11-17T07:08:34.339Z,11.80
2022-11-17T07:11:09.381Z,11.96
2022-11-17T07:13:36.675Z,12.20
2022-11-17T07:16:06.954Z,11.86
2022-11-17T07:18:34.193Z,12.28
2022-11-17T07:21:06.365Z,12.16
2022-11-17T07:23:34.656Z,11.79
2022-11-17T07:26:01.609Z,12.24
2022-11-17T07:28:28.525Z,11.72
2022-11-17T07:30:55.595Z,11.65
2022-11-17T07:33:22.755Z,11.88
2022-11-17T07:35:49.342Z,11.97
2022-11-17T07:38:15.904Z,12.13
2022-11-17T07:40:42.414Z,11.55
2022-11-17T07:43:08.989Z,11.92
2022-11-17T07:45:36.190Z,12.08
2022-11-17T07:48:04.160Z,12.55
2022-11-17T07:50:31.111Z,12.23
2022-11-17T07:52:57.742Z,11.96
2022-11-17T07:55:25.561Z,12.27
2022-11-17T07:57:56.727Z,12.26
2022-11-17T08:00:23.370Z,12.15
2022-11-17T08:02:50.389Z,12.23
2022-11-17T08:05:17.533Z,12.39
2022-11-17T08:07:45.299Z,12.13
2022-11-17T08:10:13.521Z,11.95
2022-11-17T08:12:40.014Z,12.25
2022-11-17T08:15:07.400Z,11.89
2022-11-17T08:17:34.018Z,11.63
2022-11-17T08:20:00.807Z,11.77
2022-11-17T08:22:27.286Z,11.87
2022-11-17T08:24:53.788Z,12.30
2022-11-17T08:27:20.276Z,12.06
2022-11-17T08:29:46.804Z,11.97
2022-11-17T08:32:13.315Z,12.20
2022-11-17T08:34:39.823Z,11.81
2022-11-17T08:37:06.834Z,12.19
2022-11-17T08:39:33.368Z,11.72
2022-11-17T08:41:59.890Z,11.86
2022-11-17T08:44:26.399Z,12.06
2022-11-17T08:46:52.882Z,12.35
2022-11-17T08:49:19.586Z,12.20
2022-11-17T08:51:46.067Z,12.55
2022-11-17T08:54:12.722Z,12.10
2022-11-17T08:56:39.349Z,12.17
2022-11-17T08:59:06.046Z,12.19
2022-11-17T09:01:32.627Z,11.88
2022-11-17T09:03:59.354Z,12.52
2022-11-17T09:06:25.871Z,11.79
2022-11-17T09:08:55.623Z,11.93
2022-11-17T09:11:22.413Z,11.92
2022-11-17T09:13:48.949Z,11.60
2022-11-17T09:16:16.477Z,12.18
2022-11-17T09:18:44.026Z,11.98
2022-11-17T09:21:13.658Z,12.00
2022-11-17T09:23:40.330Z,12.12
2022-11-17T09:26:09.945Z,12.32
2022-11-17T09:28:37.033Z,12.08
2022-11-17T09:31:14.728Z,12.01
2022-11-17T09:33:42.578Z,12.29
2022-11-17T09:36:10.191Z,12.67
2022-11-17T09:38:37.882Z,12.40
2022-11-17T09:41:26.511Z,12.38
2022-11-17T09:44:03.145Z,12.38
2022-11-17T09:46:36.344Z,12.49
2022-11-17T09:49:35.098Z,12.09
2022-11-17T09:52:41.057Z,12.02
2022-11-17T09:55:33.886Z,12.39
2022-11-17T09:58:19.884Z,12.34
2022-11-17T10:00:48.835Z,12.57
2022-11-17T10:03:20.461Z,12.62
2022-11-17T10:05:47.726Z,12.56
2022-11-17T10:08:47.258Z,13.09
2022-11-17T10:11:31.582Z,13.05
2022-11-17T10:14:15.880Z,13.41
2022-11-17T10:16:51.376Z,14.08
2022-11-17T10:19:21.977Z,13.81
2022-11-17T10:22:21.054Z,13.96
2022-11-17T10:24:54.929Z,14.37
2022-11-17T10:27:35.065Z,14.90
2022-11-17T10:30:07.060Z,15.40
2022-11-17T10:32:40.667Z,15.39
2022-11-17T10:35:27.239Z,15.66
2022-11-17T10:38:04.196Z,14.71
2022-11-17T10:40:32.785Z,14.46
2022-11-17T10:43:03.947Z,14.39
2022-11-17T10:45:30.620Z,14.49
2022-11-17T10:48:16.388Z,14.16
2022-11-17T10:51:15.197Z,14.28
2022-11-17T10:53:46.803Z,14.13
2022-11-17T10:56:18.408Z,14.77
2022-11-17T10:59:12.685Z,14.30
2022-11-17T11:01:41.982Z,13.54
2022-11-17T11:04:36.832Z,13.77
2022-11-17T11:07:07.768Z,13.89
2022-11-17T11:09:37.471Z,14.45
2022-11-17T11:12:05.512Z,14.51
2022-11-17T11:14:41.305Z,14.66
2022-11-17T11:17:13.006Z,14.79
2022-11-17T11:19:41.447Z,15.29
2022-11-17T11:22:19.736Z,15.80
2022-11-17T11:25:15.469Z,16.82
2022-11-17T11:28:05.232Z,17.10
2022-11-17T11:30:38.050Z,16.72
2022-11-17T11:33:34.312Z,15.46
2022-11-17T11:36:25.504Z,16.08
2022-11-17T11:39:22.452Z,15.62
2022-11-17T11:42:07.732Z,15.59
2022-11-17T11:44:56.553Z,15.71
2022-11-17T11:47:40.104Z,16.12
2022-11-17T11:50:18.423Z,15.44
2022-11-17T11:52:48.314Z,15.50
2022-11-17T11:55:21.896Z,17.26
2022-11-17T11:57:54.775Z,18.35
2022-11-17T12:00:21.496Z,17.60
2022-11-17T12:03:15.631Z,16.77
2022-11-17T12:06:28.827Z,16.12
2022-11-17T12:09:25.331Z,15.68
2022-11-17T12:12:01.440Z,15.51
2022-11-17T12:14:33.597Z,15.21
2022-11-17T12:17:26.352Z,14.83
2022-11-17T12:19:54.820Z,14.80
2022-11-17T12:22:42.259Z,15.18
2022-11-17T12:25:18.516Z,15.52
2022-11-17T12:27:55.100Z,16.06
2022-11-17T12:30:30.669Z,16.45
2022-11-17T12:32:58.534Z,15.89
2022-11-17T12:35:31.794Z,16.03
2022-11-17T12:38:16.682Z,15.24
2022-11-17T12:40:49.716Z,15.91
2022-11-17T12:43:16.310Z,16.01
2022-11-17T12:45:54.632Z,15.57
2022-11-17T12:48:38.350Z,14.55
2022-11-17T12:51:15.954Z,14.83
2022-11-17T12:54:10.953Z,15.22
2022-11-17T12:57:09.593Z,14.79
2022-11-17T13:00:00.052Z,15.08
2022-11-17T13:02:46.622Z,15.56
2022-11-17T13:05:19.621Z,15.95
2022-11-17T13:07:46.165Z,16.02
2022-11-17T13:10:29.421Z,15.75
2022-11-17T13:13:11.072Z,15.60
2022-11-17T13:15:37.915Z,16.31
2022-11-17T13:18:10.724Z,15.89
2022-11-17T13:20:38.713Z,16.65
2022-11-17T13:23:20.078Z,15.69
2022-11-17T13:25:46.588Z,15.45
2022-11-17T13:28:30.679Z,15.27
2022-11-17T13:30:58.696Z,15.48
2022-11-17T13:33:26.036Z,15.02
2022-11-17T13:36:08.229Z,14.61
2022-11-17T13:38:35.267Z,14.45
2022-11-17T13:41:02.759Z,14.86
2022-11-17T13:43:38.076Z,14.90
2022-11-17T13:46:06.274Z,14.97
2022-11-17T13:48:38.210Z,15.57
2022-11-17T13:51:22.995Z,15.31
2022-11-17T13:54:06.891Z,14.95
2022-11-17T13:56:41.304Z,15.63
2022-11-17T13:59:35.647Z,14.87
2022-11-17T14:02:24.287Z,14.77
2022-11-17T14:05:09.427Z,14.41
2022-11-17T14:07:37.919Z,14.47
2022-11-17T14:10:14.817Z,14.20
2022-11-17T14:12:41.631Z,14.20
2022-11-17T14:15:15.250Z,14.44
2022-11-17T14:17:47.866Z,14.64
2022-11-17T14:20:23.654Z,14.58
2022-11-17T14:23:01.384Z,14.48
2022-11-17T14:25:28.967Z,15.13
2022-11-17T14:27:56.081Z,14.75
2022-11-17T14:30:22.936Z,14.77
2022-11-17T14:32:49.471Z,15.08
2022-11-17T14:37:47.521Z,14.87
2022-11-17T14:40:15.289Z,15.45
2022-11-17T14:42:41.963Z,15.06
2022-11-17T14:45:12.256Z,14.88
2022-11-17T14:47:39.498Z,15.34
2022-11-17T14:50:07.230Z,14.70
2022-11-17T14:52:33.689Z,14.86
2022-11-17T14:55:00.953Z,15.11
2022-11-17T14:57:27.512Z,15.23
2022-11-17T14:59:54.065Z,15.00
2022-11-17T15:02:20.494Z,15.13
2022-11-17T15:04:51.534Z,14.99
2022-11-17T15:07:18.361Z,15.31
2022-11-17T15:09:44.960Z,15.41
2022-11-17T15:12:11.502Z,15.48
2022-11-17T15:14:37.981Z,15.59
2022-11-17T15:17:05.744Z,15.13
2022-11-17T15:19:36.443Z,15.37
2022-11-17T15:22:02.884Z,15.65
2022-11-17T15:24:30.488Z,15.92
2022-11-17T15:26:57.027Z,15.59
2022-11-17T15:29:23.559Z,15.87
2022-11-17T15:31:50.113Z,15.44
2022-11-17T15:34:20.151Z,15.53
2022-11-17T15:36:47.564Z,15.73
2022-11-17T15:39:14.439Z,15.60
2022-11-17T15:41:41.319Z,15.80
2022-11-17T15:44:07.992Z,15.41
2022-11-17T15:46:34.790Z,15.42
2022-11-17T15:49:01.426Z,15.32
2022-11-17T15:51:28.626Z,15.11
2022-11-17T15:53:59.890Z,15.47
2022-11-17T15:56:28.384Z,15.40
2022-11-17T15:59:03.164Z,15.13
2022-11-17T16:01:31.331Z,15.11
2022-11-17T16:04:00.843Z,14.97
2022-11-17T16:06:28.389Z,14.07
2022-11-17T16:08:55.411Z,14.34
2022-11-17T16:11:22.273Z,14.30
2022-11-17T16:13:52.097Z,14.62
2022-11-17T16:16:18.691Z,14.22
2022-11-17T16:18:45.210Z,14.67
2022-11-17T16:21:12.873Z,14.82
2022-11-17T16:23:40.860Z,14.94
2022-11-17T16:26:08.750Z,15.17
2022-11-17T16:28:35.313Z,15.35
2022-11-17T16:31:12.410Z,15.19
2022-11-17T16:33:38.926Z,15.36
2022-11-17T16:36:06.407Z,15.34
2022-11-17T16:38:32.897Z,15.12
2022-11-17T16:41:02.441Z,15.36
2022-11-17T16:43:29.052Z,14.89
2022-11-17T16:45:56.681Z,15.06
2022-11-17T16:48:23.295Z,14.83
2022-11-17T16:50:49.952Z,14.86
2022-11-17T16:53:16.565Z,15.11
2022-11-17T16:55:43.104Z,15.30
2022-11-17T16:58:10.214Z,15.08
2022-11-17T17:00:36.781Z,15.20
2022-11-17T17:03:03.925Z,15.04
2022-11-17T17:05:30.534Z,15.43
2022-11-17T17:07:57.105Z,14.94
2022-11-17T17:10:24.382Z,14.68
2022-11-17T17:12:51.240Z,14.75
2022-11-17T17:15:17.890Z,14.57
2022-11-17T17:17:44.379Z,15.08
2022-11-17T17:20:11.281Z,14.41
2022-11-17T17:22:37.748Z,14.49
2022-11-17T17:25:04.698Z,14.43
2022-11-17T17:27:31.359Z,14.26
2022-11-17T17:29:57.909Z,14.01
2022-11-17T17:32:24.408Z,14.14
2022-11-17T17:34:51.160Z,13.76
2022-11-17T17:37:18.347Z,13.82
2022-11-17T17:39:44.811Z,13.92
2022-11-17T17:42:15.018Z,13.90
2022-11-17T17:44:41.867Z,14.11
2022-11-17T17:47:08.440Z,13.44
2022-11-17T17:49:34.965Z,13.71
2022-11-17T17:52:01.489Z,13.69
2022-11-17T17:54:28.169Z,13.41
2022-11-17T17:56:59.893Z,13.24
2022-11-17T17:59:26.419Z,13.63
2022-11-17T18:01:53.330Z,13.67
2022-11-17T18:04:19.953Z,13.97
2022-11-17T18:06:47.862Z,13.89
2022-11-17T18:09:18.790Z,13.73
2022-11-17T18:11:48.016Z,13.56
2022-11-17T18:14:14.745Z,14.05
2022-11-17T18:16:41.514Z,13.48
2022-11-17T18:19:09.119Z,13.34
2022-11-17T18:21:36.254Z,13.91
2022-11-17T18:24:03.571Z,14.37
2022-11-17T18:26:32.887Z,14.61
2022-11-17T18:29:07.483Z,14.71
2022-11-17T18:31:35.339Z,14.83
2022-11-17T18:34:13.333Z,14.69
2022-11-17T18:36:40.059Z,14.93
2022-11-17T18:39:06.578Z,14.79
2022-11-17T18:41:34.121Z,14.73
2022-11-17T18:44:01.407Z,14.79
2022-11-17T18:46:30.043Z,14.73
2022-11-17T18:48:57.250Z,14.28
2022-11-17T18:51:26.572Z,14.20
2022-11-17T18:53:54.284Z,13.76
2022-11-17T18:56:23.422Z,13.79
2022-11-17T18:58:50.358Z,13.53
2022-11-17T19:01:25.047Z,14.06
2022-11-17T19:03:53.532Z,13.62
2022-11-17T19:06:21.928Z,13.79
2022-11-17T19:08:48.955Z,12.73
2022-11-17T19:11:17.247Z,13.22
2022-11-17T19:13:44.108Z,12.68
2022-11-17T19:16:19.729Z,13.27
2022-11-17T19:18:47.992Z,12.83
2022-11-17T19:21:16.426Z,12.67
2022-11-17T19:23:49.536Z,12.86
2022-11-17T19:26:19.207Z,12.61
2022-11-17T19:28:45.643Z,12.48
2022-11-17T19:31:15.423Z,12.28
2022-11-17T19:33:42.034Z,12.80
2022-11-17T19:36:11.463Z,13.07
2022-11-17T19:38:38.901Z,12.62
2022-11-17T19:41:11.222Z,12.19
2022-11-17T19:43:43.393Z,12.29
2022-11-17T19:46:13.625Z,11.73
2022-11-17T19:48:40.827Z,12.95
2022-11-17T19:51:20.424Z,12.79
2022-11-17T19:53:52.288Z,12.92
2022-11-17T19:56:19.404Z,12.89
2022-11-17T19:58:46.644Z,12.81
2022-11-17T20:01:24.647Z,12.70
2022-11-17T20:03:51.229Z,12.51
2022-11-17T20:06:20.910Z,12.83
2022-11-17T20:08:48.305Z,13.39
2022-11-17T20:11:20.218Z,13.43
2022-11-17T20:13:47.198Z,13.52
2022-11-17T20:16:16.047Z,13.60
2022-11-17T20:18:43.645Z,13.67
2022-11-17T20:21:11.237Z,12.89
2022-11-17T20:23:38.665Z,13.56
2022-11-17T20:26:15.685Z,13.27
2022-11-17T20:28:42.368Z,12.94
2022-11-17T20:31:14.252Z,12.86
2022-11-17T20:33:42.220Z,13.06
2022-11-17T20:36:11.272Z,13.05
2022-11-17T20:38:38.402Z,13.35
2022-11-17T20:41:05.237Z,13.21
2022-11-17T20:43:32.276Z,12.84
2022-11-17T20:45:59.319Z,12.81
2022-11-17T20:48:27.692Z,12.93
2022-11-17T20:50:58.098Z,12.98
2022-11-17T20:53:24.827Z,13.23
2022-11-17T20:55:51.722Z,12.64
2022-11-17T20:58:18.278Z,13.06
2022-11-17T21:00:44.937Z,12.86
2022-11-17T21:03:11.552Z,12.55
2022-11-17T21:05:38.088Z,12.68
2022-11-17T21:08:04.871Z,12.85
2022-11-17T21:10:31.392Z,13.29
2022-11-17T21:12:58.691Z,13.53
2022-11-17T21:15:25.181Z,13.55
2022-11-17T21:18:10.542Z,13.35
2022-11-17T21:20:37.109Z,13.40
2022-11-17T21:23:03.625Z,13.73
2022-11-17T21:25:30.065Z,13.45
2022-11-17T21:27:56.674Z,13.52
2022-11-17T21:30:23.157Z,13.40
2022-11-17T21:32:49.679Z,13.38
2022-11-17T21:35:16.255Z,13.88
2022-11-17T21:37:42.733Z,13.47
2022-11-17T21:40:09.550Z,13.94
2022-11-17T21:42:36.253Z,13.84
2022-11-17T21:45:02.798Z,13.90
2022-11-17T21:47:29.247Z,13.66
2022-11-17T21:49:55.814Z,13.69
2022-11-17T21:52:22.357Z,13.81
2022-11-17T21:54:48.809Z,13.00
2022-11-17T21:57:15.296Z,13.77
2022-11-17T21:59:41.765Z,13.34
2022-11-17T22:02:09.759Z,13.38
2022-11-17T22:04:36.223Z,13.07
2022-11-17T22:07:03.234Z,13.52
2022-11-17T22:09:32.624Z,13.65
2022-11-17T22:11:59.110Z,13.70
2022-11-17T22:14:25.760Z,13.67
2022-11-17T22:16:53.185Z,13.87
2022-11-17T22:19:21.853Z,13.89
2022-11-17T22:21:50.926Z,13.92
2022-11-17T22:24:18.169Z,13.74
2022-11-17T22:26:45.089Z,13.56
2022-11-17T22:29:14.547Z,13.59
2022-11-17T22:31:41.544Z,13.31
2022-11-17T22:34:08.387Z,13.49
2022-11-17T22:36:34.945Z,13.31
2022-11-17T22:39:01.428Z,13.40
2022-11-17T22:41:27.916Z,13.24
2022-11-17T22:43:56.070Z,13.42
2022-11-17T22:46:24.949Z,13.05
2022-11-17T22:48:52.031Z,13.02
2022-11-17T22:51:37.665Z,13.10
2022-11-17T22:54:05.701Z,12.83
2022-11-17T22:56:32.664Z,12.99
2022-11-17T22:59:00.007Z,13.05
2022-11-17T23:01:26.749Z,13.11
2022-11-17T23:03:53.281Z,13.06
2022-11-17T23:06:22.510Z,13.08
2022-11-17T23:08:49.002Z,12.61
2022-11-17T23:11:35.933Z,12.99
2022-11-17T23:14:02.166Z,12.84
2022-11-17T23:16:28.656Z,12.73
2022-11-17T23:18:55.768Z,12.96
2022-11-17T23:21:22.831Z,12.57
2022-11-17T23:23:49.543Z,12.70
2022-11-17T23:26:16.137Z,13.03
2022-11-17T23:28:43.466Z,12.74
2022-11-17T23:31:12.581Z,13.03
2022-11-17T23:33:41.734Z,12.74
2022-11-17T23:36:19.934Z,12.77
2022-11-17T23:38:47.257Z,12.82
2022-11-17T23:41:15.719Z,12.62
2022-11-17T23:43:42.619Z,12.70
2022-11-17T23:46:14.570Z,12.62
2022-11-17T23:48:41.399Z,12.68
2022-11-17T23:51:09.693Z,12.45
2022-11-17T23:53:36.373Z,12.27
2022-11-17T23:56:04.248Z,12.02
2022-11-17T23:58:31.333Z,12.24
